sensor_id;sensor_type;location;lat;lon;timestamp;P1;durP1;ratioP1;P2;durP2;ratioP2
10387;SDS011;5240;51.128;4.566;2024-01-10T00:01:11;10.30;;;5.20;;
10387;SDS011;5240;51.128;4.566;2024-01-10T00:03:38;8.63;;;5.27;;
10387;SDS011;5240;51.128;4.566;2024-01-10T00:06:05;9.30;;;5.90;;
10387;SDS011;5240;51.128;4.566;2024-01-10T00:08:32;9.43;;;5.77;;
10387;SDS011;5240;51.128;4.566;2024-01-10T00:11:00;10.33;;;5.83;;
10387;SDS011;5240;51.128;4.566;2024-01-10T00:13:32;10.17;;;6.00;;
10387;SDS011;5240;51.128;4.566;2024-01-10T00:15:59;10.47;;;6.10;;
10387;SDS011;5240;51.128;4.566;2024-01-10T00:18:27;7.87;;;5.30;;
10387;SDS011;5240;51.128;4.566;2024-01-10T00:20:54;6.87;;;5.33;;
10387;SDS011;5240;51.128;4.566;2024-01-10T00:23:21;10.17;;;5.53;;
10387;SDS011;5240;51.128;4.566;2024-01-10T00:25:48;9.77;;;6.67;;
10387;SDS011;5240;51.128;4.566;2024-01-10T00:28:16;6.93;;;4.60;;
10387;SDS011;5240;51.128;4.566;2024-01-10T00:30:44;9.93;;;5.80;;
10387;SDS011;5240;51.128;4.566;2024-01-10T00:33:13;7.60;;;5.33;;
10387;SDS011;5240;51.128;4.566;2024-01-10T00:35:40;10.20;;;5.80;;
10387;SDS011;5240;51.128;4.566;2024-01-10T00:38:08;8.93;;;5.77;;
10387;SDS011;5240;51.128;4.566;2024-01-10T00:40:35;9.40;;;5.33;;
10387;SDS011;5240;51.128;4.566;2024-01-10T00:43:02;8.80;;;5.67;;
10387;SDS011;5240;51.128;4.566;2024-01-10T00:45:30;8.00;;;5.13;;
10387;SDS011;5240;51.128;4.566;2024-01-10T00:47:58;8.87;;;5.73;;
10387;SDS011;5240;51.128;4.566;2024-01-10T00:50:26;8.90;;;5.10;;
10387;SDS011;5240;51.128;4.566;2024-01-10T00:52:53;11.33;;;5.67;;
10387;SDS011;5240;51.128;4.566;2024-01-10T00:55:20;8.53;;;5.27;;
10387;SDS011;5240;51.128;4.566;2024-01-10T00:57:47;9.00;;;5.57;;
10387;SDS011;5240;51.128;4.566;2024-01-10T01:00:15;8.90;;;5.10;;
10387;SDS011;5240;51.128;4.566;2024-01-10T01:02:42;7.80;;;5.10;;
10387;SDS011;5240;51.128;4.566;2024-01-10T01:05:11;8.80;;;4.83;;
10387;SDS011;5240;51.128;4.566;2024-01-10T01:07:38;9.37;;;5.10;;
10387;SDS011;5240;51.128;4.566;2024-01-10T01:10:06;8.07;;;5.20;;
10387;SDS011;5240;51.128;4.566;2024-01-10T01:12:34;8.77;;;5.13;;
10387;SDS011;5240;51.128;4.566;2024-01-10T01:15:01;10.20;;;4.97;;
10387;SDS011;5240;51.128;4.566;2024-01-10T01:17:28;8.43;;;5.47;;
10387;SDS011;5240;51.128;4.566;2024-01-10T01:19:56;8.13;;;4.97;;
10387;SDS011;5240;51.128;4.566;2024-01-10T01:22:24;10.17;;;5.27;;
10387;SDS011;5240;51.128;4.566;2024-01-10T01:24:52;9.57;;;5.43;;
10387;SDS011;5240;51.128;4.566;2024-01-10T01:27:19;8.47;;;5.37;;
10387;SDS011;5240;51.128;4.566;2024-01-10T01:29:46;7.63;;;4.97;;
10387;SDS011;5240;51.128;4.566;2024-01-10T01:32:13;8.43;;;4.90;;
10387;SDS011;5240;51.128;4.566;2024-01-10T01:34:41;9.40;;;5.27;;
10387;SDS011;5240;51.128;4.566;2024-01-10T01:37:08;8.73;;;5.20;;
10387;SDS011;5240;51.128;4.566;2024-01-10T01:39:37;8.17;;;5.20;;
10387;SDS011;5240;51.128;4.566;2024-01-10T01:42:04;8.53;;;4.70;;
10387;SDS011;5240;51.128;4.566;2024-01-10T01:44:31;9.17;;;5.03;;
10387;SDS011;5240;51.128;4.566;2024-01-10T01:46:58;7.10;;;4.97;;
10387;SDS011;5240;51.128;4.566;2024-01-10T01:49:26;12.17;;;5.70;;
10387;SDS011;5240;51.128;4.566;2024-01-10T01:51:53;7.87;;;4.83;;
10387;SDS011;5240;51.128;4.566;2024-01-10T01:54:20;9.93;;;4.93;;
10387;SDS011;5240;51.128;4.566;2024-01-10T01:56:49;11.57;;;5.23;;
10387;SDS011;5240;51.128;4.566;2024-01-10T01:59:17;8.67;;;5.13;;
10387;SDS011;5240;51.128;4.566;2024-01-10T02:01:44;8.53;;;5.23;;
10387;SDS011;5240;51.128;4.566;2024-01-10T02:04:11;9.30;;;5.50;;
10387;SDS011;5240;51.128;4.566;2024-01-10T02:06:38;9.03;;;5.47;;
10387;SDS011;5240;51.128;4.566;2024-01-10T02:09:06;9.87;;;5.40;;
10387;SDS011;5240;51.128;4.566;2024-01-10T02:11:33;10.23;;;5.63;;
10387;SDS011;5240;51.128;4.566;2024-01-10T02:14:02;10.23;;;5.47;;
10387;SDS011;5240;51.128;4.566;2024-01-10T02:16:29;6.73;;;5.17;;
10387;SDS011;5240;51.128;4.566;2024-01-10T02:18:56;10.33;;;5.53;;
10387;SDS011;5240;51.128;4.566;2024-01-10T02:21:25;10.97;;;5.17;;
10387;SDS011;5240;51.128;4.566;2024-01-10T02:23:52;10.07;;;5.50;;
10387;SDS011;5240;51.128;4.566;2024-01-10T02:26:21;10.60;;;5.87;;
10387;SDS011;5240;51.128;4.566;2024-01-10T02:28:48;9.10;;;5.33;;
10387;SDS011;5240;51.128;4.566;2024-01-10T02:31:15;9.60;;;5.20;;
10387;SDS011;5240;51.128;4.566;2024-01-10T02:33:43;8.27;;;5.80;;
10387;SDS011;5240;51.128;4.566;2024-01-10T02:36:10;8.30;;;5.00;;
10387;SDS011;5240;51.128;4.566;2024-01-10T02:38:37;9.77;;;5.10;;
10387;SDS011;5240;51.128;4.566;2024-01-10T02:41:04;9.23;;;5.43;;
10387;SDS011;5240;51.128;4.566;2024-01-10T02:43:33;6.80;;;4.90;;
10387;SDS011;5240;51.128;4.566;2024-01-10T02:46:00;9.07;;;4.60;;
10387;SDS011;5240;51.128;4.566;2024-01-10T02:48:27;8.30;;;5.33;;
10387;SDS011;5240;51.128;4.566;2024-01-10T02:50:54;7.87;;;4.70;;
10387;SDS011;5240;51.128;4.566;2024-01-10T02:53:22;10.60;;;5.70;;
10387;SDS011;5240;51.128;4.566;2024-01-10T02:55:49;7.73;;;5.00;;
10387;SDS011;5240;51.128;4.566;2024-01-10T02:58:17;8.57;;;4.80;;
10387;SDS011;5240;51.128;4.566;2024-01-10T03:00:47;8.30;;;5.37;;
10387;SDS011;5240;51.128;4.566;2024-01-10T03:03:15;6.70;;;4.70;;
10387;SDS011;5240;51.128;4.566;2024-01-10T03:05:42;7.43;;;5.07;;
10387;SDS011;5240;51.128;4.566;2024-01-10T03:08:09;10.73;;;5.57;;
10387;SDS011;5240;51.128;4.566;2024-01-10T03:10:36;9.07;;;5.60;;
10387;SDS011;5240;51.128;4.566;2024-01-10T03:13:03;9.87;;;5.37;;
10387;SDS011;5240;51.128;4.566;2024-01-10T03:15:31;9.60;;;5.47;;
10387;SDS011;5240;51.128;4.566;2024-01-10T03:17:59;8.47;;;4.87;;
10387;SDS011;5240;51.128;4.566;2024-01-10T03:20:27;7.10;;;4.67;;
10387;SDS011;5240;51.128;4.566;2024-01-10T03:22:54;8.33;;;4.97;;
10387;SDS011;5240;51.128;4.566;2024-01-10T03:25:21;9.03;;;5.00;;
10387;SDS011;5240;51.128;4.566;2024-01-10T03:27:48;8.40;;;4.77;;
10387;SDS011;5240;51.128;4.566;2024-01-10T03:30:16;9.80;;;5.30;;
10387;SDS011;5240;51.128;4.566;2024-01-10T03:32:44;7.77;;;5.10;;
10387;SDS011;5240;51.128;4.566;2024-01-10T03:35:13;7.00;;;4.53;;
10387;SDS011;5240;51.128;4.566;2024-01-10T03:37:41;10.30;;;5.33;;
10387;SDS011;5240;51.128;4.566;2024-01-10T03:40:08;6.10;;;4.67;;
10387;SDS011;5240;51.128;4.566;2024-01-10T03:42:35;8.40;;;4.47;;
10387;SDS011;5240;51.128;4.566;2024-01-10T03:45:03;7.33;;;4.80;;
10387;SDS011;5240;51.128;4.566;2024-01-10T03:47:30;10.83;;;4.83;;
10387;SDS011;5240;51.128;4.566;2024-01-10T03:49:57;8.33;;;4.73;;
10387;SDS011;5240;51.128;4.566;2024-01-10T03:52:26;7.47;;;4.57;;
10387;SDS011;5240;51.128;4.566;2024-01-10T03:54:53;7.93;;;4.90;;
10387;SDS011;5240;51.128;4.566;2024-01-10T03:57:21;7.70;;;4.43;;
10387;SDS011;5240;51.128;4.566;2024-01-10T03:59:48;8.00;;;4.80;;
10387;SDS011;5240;51.128;4.566;2024-01-10T04:02:15;8.27;;;4.77;;
10387;SDS011;5240;51.128;4.566;2024-01-10T04:04:42;8.37;;;4.40;;
10387;SDS011;5240;51.128;4.566;2024-01-10T04:07:10;7.07;;;4.30;;
10387;SDS011;5240;51.128;4.566;2024-01-10T04:09:38;7.20;;;4.40;;
10387;SDS011;5240;51.128;4.566;2024-01-10T04:12:05;7.90;;;4.63;;
10387;SDS011;5240;51.128;4.566;2024-01-10T04:14:33;6.80;;;4.33;;
10387;SDS011;5240;51.128;4.566;2024-01-10T04:17:00;6.77;;;4.37;;
10387;SDS011;5240;51.128;4.566;2024-01-10T04:19:30;7.03;;;4.10;;
10387;SDS011;5240;51.128;4.566;2024-01-10T04:21:57;8.07;;;4.33;;
10387;SDS011;5240;51.128;4.566;2024-01-10T04:24:24;6.53;;;4.20;;
10387;SDS011;5240;51.128;4.566;2024-01-10T04:26:53;7.77;;;4.40;;
10387;SDS011;5240;51.128;4.566;2024-01-10T04:29:20;7.27;;;4.00;;
10387;SDS011;5240;51.128;4.566;2024-01-10T04:31:47;9.07;;;4.40;;
10387;SDS011;5240;51.128;4.566;2024-01-10T04:34:14;6.83;;;4.43;;
10387;SDS011;5240;51.128;4.566;2024-01-10T04:36:41;6.50;;;4.20;;
10387;SDS011;5240;51.128;4.566;2024-01-10T04:39:09;6.43;;;4.23;;
10387;SDS011;5240;51.128;4.566;2024-01-10T04:41:36;8.87;;;4.33;;
10387;SDS011;5240;51.128;4.566;2024-01-10T04:44:06;7.60;;;4.60;;
10387;SDS011;5240;51.128;4.566;2024-01-10T04:46:33;6.47;;;4.40;;
10387;SDS011;5240;51.128;4.566;2024-01-10T04:49:00;8.13;;;4.40;;
10387;SDS011;5240;51.128;4.566;2024-01-10T04:51:28;8.23;;;4.60;;
10387;SDS011;5240;51.128;4.566;2024-01-10T04:53:55;6.27;;;4.20;;
10387;SDS011;5240;51.128;4.566;2024-01-10T04:56:22;8.73;;;4.77;;
10387;SDS011;5240;51.128;4.566;2024-01-10T04:58:49;6.60;;;4.13;;
10387;SDS011;5240;51.128;4.566;2024-01-10T05:01:18;7.03;;;4.53;;
10387;SDS011;5240;51.128;4.566;2024-01-10T05:03:45;6.43;;;4.10;;
10387;SDS011;5240;51.128;4.566;2024-01-10T05:06:12;7.73;;;4.47;;
10387;SDS011;5240;51.128;4.566;2024-01-10T05:08:39;7.77;;;4.37;;
10387;SDS011;5240;51.128;4.566;2024-01-10T05:11:07;6.87;;;4.33;;
10387;SDS011;5240;51.128;4.566;2024-01-10T05:13:34;7.00;;;4.23;;
10387;SDS011;5240;51.128;4.566;2024-01-10T05:16:01;6.43;;;4.10;;
10387;SDS011;5240;51.128;4.566;2024-01-10T05:18:30;8.07;;;4.47;;
10387;SDS011;5240;51.128;4.566;2024-01-10T05:20:58;7.07;;;4.30;;
10387;SDS011;5240;51.128;4.566;2024-01-10T05:23:26;7.17;;;4.20;;
10387;SDS011;5240;51.128;4.566;2024-01-10T05:25:53;6.37;;;4.03;;
10387;SDS011;5240;51.128;4.566;2024-01-10T05:28:20;7.20;;;4.43;;
10387;SDS011;5240;51.128;4.566;2024-01-10T05:30:48;7.73;;;4.33;;
10387;SDS011;5240;51.128;4.566;2024-01-10T05:33:15;8.90;;;4.77;;
10387;SDS011;5240;51.128;4.566;2024-01-10T05:35:43;6.43;;;3.93;;
10387;SDS011;5240;51.128;4.566;2024-01-10T05:38:11;7.57;;;4.70;;
10387;SDS011;5240;51.128;4.566;2024-01-10T05:40:38;11.00;;;4.90;;
10387;SDS011;5240;51.128;4.566;2024-01-10T05:43:05;7.50;;;4.13;;
10387;SDS011;5240;51.128;4.566;2024-01-10T05:45:33;6.73;;;4.50;;
10387;SDS011;5240;51.128;4.566;2024-01-10T05:48:00;8.77;;;4.50;;
10387;SDS011;5240;51.128;4.566;2024-01-10T05:50:28;7.47;;;4.57;;
10387;SDS011;5240;51.128;4.566;2024-01-10T05:52:56;9.13;;;4.63;;
10387;SDS011;5240;51.128;4.566;2024-01-10T05:55:23;7.67;;;4.63;;
10387;SDS011;5240;51.128;4.566;2024-01-10T05:57:50;7.47;;;4.67;;
10387;SDS011;5240;51.128;4.566;2024-01-10T06:00:17;7.13;;;4.47;;
10387;SDS011;5240;51.128;4.566;2024-01-10T06:02:46;6.27;;;4.27;;
10387;SDS011;5240;51.128;4.566;2024-01-10T06:05:13;7.03;;;4.50;;
10387;SDS011;5240;51.128;4.566;2024-01-10T06:07:40;8.63;;;4.90;;
10387;SDS011;5240;51.128;4.566;2024-01-10T06:10:09;7.33;;;4.60;;
10387;SDS011;5240;51.128;4.566;2024-01-10T06:12:36;7.43;;;4.37;;
10387;SDS011;5240;51.128;4.566;2024-01-10T06:15:04;6.93;;;3.70;;
10387;SDS011;5240;51.128;4.566;2024-01-10T06:17:32;6.63;;;4.23;;
10387;SDS011;5240;51.128;4.566;2024-01-10T06:19:59;8.30;;;5.10;;
10387;SDS011;5240;51.128;4.566;2024-01-10T06:22:28;6.77;;;4.27;;
10387;SDS011;5240;51.128;4.566;2024-01-10T06:24:56;11.37;;;4.90;;
10387;SDS011;5240;51.128;4.566;2024-01-10T06:27:24;6.90;;;4.77;;
10387;SDS011;5240;51.128;4.566;2024-01-10T06:29:51;8.23;;;4.93;;
10387;SDS011;5240;51.128;4.566;2024-01-10T06:32:19;7.17;;;4.43;;
10387;SDS011;5240;51.128;4.566;2024-01-10T06:34:46;7.33;;;4.47;;
10387;SDS011;5240;51.128;4.566;2024-01-10T06:37:13;8.23;;;4.80;;
10387;SDS011;5240;51.128;4.566;2024-01-10T06:39:41;6.73;;;4.77;;
10387;SDS011;5240;51.128;4.566;2024-01-10T06:42:09;7.00;;;4.23;;
10387;SDS011;5240;51.128;4.566;2024-01-10T06:44:38;9.00;;;5.33;;
10387;SDS011;5240;51.128;4.566;2024-01-10T06:47:05;10.47;;;5.13;;
10387;SDS011;5240;51.128;4.566;2024-01-10T06:49:33;8.33;;;4.47;;
10387;SDS011;5240;51.128;4.566;2024-01-10T06:52:00;9.47;;;4.90;;
10387;SDS011;5240;51.128;4.566;2024-01-10T06:54:27;10.63;;;4.87;;
10387;SDS011;5240;51.128;4.566;2024-01-10T06:56:54;7.93;;;5.47;;
10387;SDS011;5240;51.128;4.566;2024-01-10T06:59:22;11.13;;;4.83;;
10387;SDS011;5240;51.128;4.566;2024-01-10T07:01:52;16.97;;;5.40;;
10387;SDS011;5240;51.128;4.566;2024-01-10T07:04:21;11.23;;;5.60;;
10387;SDS011;5240;51.128;4.566;2024-01-10T07:06:49;8.37;;;4.50;;
10387;SDS011;5240;51.128;4.566;2024-01-10T07:09:16;9.00;;;5.33;;
10387;SDS011;5240;51.128;4.566;2024-01-10T07:11:45;11.53;;;5.20;;
10387;SDS011;5240;51.128;4.566;2024-01-10T07:14:12;9.73;;;5.67;;
10387;SDS011;5240;51.128;4.566;2024-01-10T07:16:40;8.20;;;4.57;;
10387;SDS011;5240;51.128;4.566;2024-01-10T07:19:12;11.17;;;4.87;;
10387;SDS011;5240;51.128;4.566;2024-01-10T07:21:39;7.87;;;5.70;;
10387;SDS011;5240;51.128;4.566;2024-01-10T07:24:07;11.07;;;5.57;;
10387;SDS011;5240;51.128;4.566;2024-01-10T07:26:38;11.80;;;5.30;;
10387;SDS011;5240;51.128;4.566;2024-01-10T07:29:09;9.53;;;5.27;;
10387;SDS011;5240;51.128;4.566;2024-01-10T07:31:36;9.30;;;4.93;;
10387;SDS011;5240;51.128;4.566;2024-01-10T07:34:05;10.07;;;5.50;;
10387;SDS011;5240;51.128;4.566;2024-01-10T07:39:18;7.87;;;4.80;;
10387;SDS011;5240;51.128;4.566;2024-01-10T07:41:45;7.67;;;5.20;;
10387;SDS011;5240;51.128;4.566;2024-01-10T07:44:15;10.30;;;5.87;;
10387;SDS011;5240;51.128;4.566;2024-01-10T07:46:42;8.10;;;5.17;;
10387;SDS011;5240;51.128;4.566;2024-01-10T07:49:09;9.77;;;5.00;;
10387;SDS011;5240;51.128;4.566;2024-01-10T07:51:36;10.47;;;4.93;;
10387;SDS011;5240;51.128;4.566;2024-01-10T07:54:04;8.43;;;5.37;;
10387;SDS011;5240;51.128;4.566;2024-01-10T07:56:33;10.23;;;5.60;;
10387;SDS011;5240;51.128;4.566;2024-01-10T07:59:00;8.03;;;5.10;;
10387;SDS011;5240;51.128;4.566;2024-01-10T08:01:27;10.07;;;5.60;;
10387;SDS011;5240;51.128;4.566;2024-01-10T08:03:55;7.93;;;5.13;;
10387;SDS011;5240;51.128;4.566;2024-01-10T08:06:22;8.30;;;5.43;;
10387;SDS011;5240;51.128;4.566;2024-01-10T08:08:50;10.97;;;5.73;;
10387;SDS011;5240;51.128;4.566;2024-01-10T08:11:17;11.07;;;5.33;;
10387;SDS011;5240;51.128;4.566;2024-01-10T08:13:46;9.50;;;5.03;;
10387;SDS011;5240;51.128;4.566;2024-01-10T08:16:13;8.07;;;5.23;;
10387;SDS011;5240;51.128;4.566;2024-01-10T08:18:43;7.80;;;5.20;;
10387;SDS011;5240;51.128;4.566;2024-01-10T08:21:10;8.73;;;4.90;;
10387;SDS011;5240;51.128;4.566;2024-01-10T08:23:40;9.13;;;5.03;;
10387;SDS011;5240;51.128;4.566;2024-01-10T08:26:09;11.50;;;6.10;;
10387;SDS011;5240;51.128;4.566;2024-01-10T08:28:37;9.77;;;5.57;;
10387;SDS011;5240;51.128;4.566;2024-01-10T08:31:08;9.60;;;5.37;;
10387;SDS011;5240;51.128;4.566;2024-01-10T08:33:37;10.87;;;5.90;;
10387;SDS011;5240;51.128;4.566;2024-01-10T08:36:05;9.93;;;5.80;;
10387;SDS011;5240;51.128;4.566;2024-01-10T08:38:34;12.87;;;5.77;;
10387;SDS011;5240;51.128;4.566;2024-01-10T08:41:02;11.07;;;6.10;;
10387;SDS011;5240;51.128;4.566;2024-01-10T08:43:29;10.60;;;6.00;;
10387;SDS011;5240;51.128;4.566;2024-01-10T08:45:57;10.93;;;6.50;;
10387;SDS011;5240;51.128;4.566;2024-01-10T08:48:25;10.37;;;5.50;;
10387;SDS011;5240;51.128;4.566;2024-01-10T08:50:53;11.37;;;6.13;;
10387;SDS011;5240;51.128;4.566;2024-01-10T08:53:21;12.83;;;5.60;;
10387;SDS011;5240;51.128;4.566;2024-01-10T08:55:48;10.30;;;5.70;;
10387;SDS011;5240;51.128;4.566;2024-01-10T08:58:16;9.03;;;5.50;;
10387;SDS011;5240;51.128;4.566;2024-01-10T09:00:43;9.77;;;5.93;;
10387;SDS011;5240;51.128;4.566;2024-01-10T09:03:12;11.60;;;6.20;;
10387;SDS011;5240;51.128;4.566;2024-01-10T09:05:41;10.33;;;5.90;;
10387;SDS011;5240;51.128;4.566;2024-01-10T09:08:08;15.53;;;6.17;;
10387;SDS011;5240;51.128;4.566;2024-01-10T09:10:36;10.07;;;5.80;;
10387;SDS011;5240;51.128;4.566;2024-01-10T09:13:04;10.60;;;5.63;;
10387;SDS011;5240;51.128;4.566;2024-01-10T09:15:34;9.40;;;5.50;;
10387;SDS011;5240;51.128;4.566;2024-01-10T09:18:02;11.43;;;6.67;;
10387;SDS011;5240;51.128;4.566;2024-01-10T09:20:29;9.97;;;5.93;;
10387;SDS011;5240;51.128;4.566;2024-01-10T09:22:58;11.13;;;6.37;;
10387;SDS011;5240;51.128;4.566;2024-01-10T09:25:26;11.00;;;6.30;;
10387;SDS011;5240;51.128;4.566;2024-01-10T09:27:53;13.37;;;6.23;;
10387;SDS011;5240;51.128;4.566;2024-01-10T09:30:21;15.50;;;11.13;;
10387;SDS011;5240;51.128;4.566;2024-01-10T09:32:49;9.90;;;6.27;;
10387;SDS011;5240;51.128;4.566;2024-01-10T09:35:16;9.87;;;6.07;;
10387;SDS011;5240;51.128;4.566;2024-01-10T09:37:44;11.40;;;6.20;;
10387;SDS011;5240;51.128;4.566;2024-01-10T09:40:13;10.83;;;6.60;;
10387;SDS011;5240;51.128;4.566;2024-01-10T09:42:41;10.63;;;6.22;;
10387;SDS011;5240;51.128;4.566;2024-01-10T09:45:08;11.40;;;6.75;;
10387;SDS011;5240;51.128;4.566;2024-01-10T09:47:38;8.45;;;6.10;;
10387;SDS011;5240;51.128;4.566;2024-01-10T09:50:08;9.63;;;6.25;;
10387;SDS011;5240;51.128;4.566;2024-01-10T09:52:39;9.02;;;5.88;;
10387;SDS011;5240;51.128;4.566;2024-01-10T09:55:08;11.55;;;6.35;;
10387;SDS011;5240;51.128;4.566;2024-01-10T09:57:37;10.65;;;6.53;;
10387;SDS011;5240;51.128;4.566;2024-01-10T10:00:05;14.80;;;6.73;;
10387;SDS011;5240;51.128;4.566;2024-01-10T10:02:35;14.33;;;6.10;;
10387;SDS011;5240;51.128;4.566;2024-01-10T10:05:07;13.67;;;7.00;;
10387;SDS011;5240;51.128;4.566;2024-01-10T10:07:42;12.60;;;6.13;;
10387;SDS011;5240;51.128;4.566;2024-01-10T10:10:10;12.33;;;7.17;;
10387;SDS011;5240;51.128;4.566;2024-01-10T10:12:45;16.73;;;9.37;;
10387;SDS011;5240;51.128;4.566;2024-01-10T10:15:14;13.83;;;6.63;;
10387;SDS011;5240;51.128;4.566;2024-01-10T10:17:43;10.60;;;6.70;;
10387;SDS011;5240;51.128;4.566;2024-01-10T10:20:14;12.53;;;6.33;;
10387;SDS011;5240;51.128;4.566;2024-01-10T10:22:59;11.23;;;6.50;;
10387;SDS011;5240;51.128;4.566;2024-01-10T10:25:27;13.40;;;7.00;;
10387;SDS011;5240;51.128;4.566;2024-01-10T10:27:57;11.10;;;6.20;;
10387;SDS011;5240;51.128;4.566;2024-01-10T10:30:25;10.23;;;6.70;;
10387;SDS011;5240;51.128;4.566;2024-01-10T10:32:52;11.70;;;7.17;;
10387;SDS011;5240;51.128;4.566;2024-01-10T10:35:20;10.30;;;6.67;;
10387;SDS011;5240;51.128;4.566;2024-01-10T10:37:48;13.80;;;7.17;;
10387;SDS011;5240;51.128;4.566;2024-01-10T10:40:15;10.80;;;6.87;;
10387;SDS011;5240;51.128;4.566;2024-01-10T10:42:43;9.67;;;6.70;;
10387;SDS011;5240;51.128;4.566;2024-01-10T10:45:14;11.67;;;6.70;;
10387;SDS011;5240;51.128;4.566;2024-01-10T10:47:43;11.80;;;6.87;;
10387;SDS011;5240;51.128;4.566;2024-01-10T10:50:21;11.07;;;6.97;;
10387;SDS011;5240;51.128;4.566;2024-01-10T10:52:50;11.57;;;6.67;;
10387;SDS011;5240;51.128;4.566;2024-01-10T10:55:18;12.93;;;6.90;;
10387;SDS011;5240;51.128;4.566;2024-01-10T10:57:46;14.80;;;7.47;;
10387;SDS011;5240;51.128;4.566;2024-01-10T11:00:18;12.33;;;6.57;;
10387;SDS011;5240;51.128;4.566;2024-01-10T11:02:45;12.10;;;6.70;;
10387;SDS011;5240;51.128;4.566;2024-01-10T11:05:23;14.13;;;6.33;;
10387;SDS011;5240;51.128;4.566;2024-01-10T11:07:58;11.23;;;7.33;;
10387;SDS011;5240;51.128;4.566;2024-01-10T11:10:31;12.87;;;7.37;;
10387;SDS011;5240;51.128;4.566;2024-01-10T11:13:03;12.57;;;6.40;;
10387;SDS011;5240;51.128;4.566;2024-01-10T11:15:46;11.67;;;6.53;;
10387;SDS011;5240;51.128;4.566;2024-01-10T11:18:21;12.17;;;7.20;;
10387;SDS011;5240;51.128;4.566;2024-01-10T11:21:02;12.17;;;6.83;;
10387;SDS011;5240;51.128;4.566;2024-01-10T11:23:36;15.70;;;7.27;;
10387;SDS011;5240;51.128;4.566;2024-01-10T11:26:06;13.23;;;6.60;;
10387;SDS011;5240;51.128;4.566;2024-01-10T11:28:35;11.90;;;7.47;;
10387;SDS011;5240;51.128;4.566;2024-01-10T11:31:05;15.13;;;7.20;;
10387;SDS011;5240;51.128;4.566;2024-01-10T11:33:33;13.20;;;7.90;;
10387;SDS011;5240;51.128;4.566;2024-01-10T11:36:08;13.43;;;7.37;;
10387;SDS011;5240;51.128;4.566;2024-01-10T11:38:39;11.50;;;7.00;;
10387;SDS011;5240;51.128;4.566;2024-01-10T11:41:07;14.77;;;6.90;;
10387;SDS011;5240;51.128;4.566;2024-01-10T11:43:37;13.57;;;7.43;;
10387;SDS011;5240;51.128;4.566;2024-01-10T11:46:05;12.17;;;6.33;;
10387;SDS011;5240;51.128;4.566;2024-01-10T11:48:33;13.03;;;7.43;;
10387;SDS011;5240;51.128;4.566;2024-01-10T11:51:01;13.83;;;7.50;;
10387;SDS011;5240;51.128;4.566;2024-01-10T11:53:39;10.00;;;6.80;;
10387;SDS011;5240;51.128;4.566;2024-01-10T11:56:10;13.60;;;7.40;;
10387;SDS011;5240;51.128;4.566;2024-01-10T11:58:56;13.63;;;8.13;;
10387;SDS011;5240;51.128;4.566;2024-01-10T12:01:30;13.40;;;7.80;;
10387;SDS011;5240;51.128;4.566;2024-01-10T12:03:57;15.43;;;7.93;;
10387;SDS011;5240;51.128;4.566;2024-01-10T12:06:25;13.05;;;7.35;;
10387;SDS011;5240;51.128;4.566;2024-01-10T12:08:52;12.57;;;7.57;;
10387;SDS011;5240;51.128;4.566;2024-01-10T12:11:19;13.50;;;7.45;;
10387;SDS011;5240;51.128;4.566;2024-01-10T12:13:47;11.25;;;7.70;;
10387;SDS011;5240;51.128;4.566;2024-01-10T12:16:14;12.10;;;7.45;;
10387;SDS011;5240;51.128;4.566;2024-01-10T12:18:44;14.70;;;7.78;;
10387;SDS011;5240;51.128;4.566;2024-01-10T12:21:11;14.32;;;8.18;;
10387;SDS011;5240;51.128;4.566;2024-01-10T12:23:38;16.87;;;7.70;;
10387;SDS011;5240;51.128;4.566;2024-01-10T12:26:07;12.68;;;7.75;;
10387;SDS011;5240;51.128;4.566;2024-01-10T12:28:37;17.77;;;7.83;;
10387;SDS011;5240;51.128;4.566;2024-01-10T12:31:04;18.77;;;7.82;;
10387;SDS011;5240;51.128;4.566;2024-01-10T12:33:32;13.27;;;7.50;;
10387;SDS011;5240;51.128;4.566;2024-01-10T12:36:06;15.95;;;7.65;;
10387;SDS011;5240;51.128;4.566;2024-01-10T12:38:34;14.57;;;7.82;;
10387;SDS011;5240;51.128;4.566;2024-01-10T12:41:01;11.65;;;7.03;;
10387;SDS011;5240;51.128;4.566;2024-01-10T12:43:30;13.18;;;7.68;;
10387;SDS011;5240;51.128;4.566;2024-01-10T12:46:06;12.75;;;7.63;;
10387;SDS011;5240;51.128;4.566;2024-01-10T12:48:36;12.57;;;7.45;;
10387;SDS011;5240;51.128;4.566;2024-01-10T12:51:05;14.43;;;7.53;;
10387;SDS011;5240;51.128;4.566;2024-01-10T12:53:33;14.13;;;8.15;;
10387;SDS011;5240;51.128;4.566;2024-01-10T12:56:01;12.73;;;7.40;;
10387;SDS011;5240;51.128;4.566;2024-01-10T12:58:29;14.27;;;7.93;;
10387;SDS011;5240;51.128;4.566;2024-01-10T13:00:57;12.90;;;7.45;;
10387;SDS011;5240;51.128;4.566;2024-01-10T13:03:24;16.08;;;7.35;;
10387;SDS011;5240;51.128;4.566;2024-01-10T13:05:51;12.37;;;7.50;;
10387;SDS011;5240;51.128;4.566;2024-01-10T13:08:20;13.37;;;7.77;;
10387;SDS011;5240;51.128;4.566;2024-01-10T13:10:47;14.68;;;8.30;;
10387;SDS011;5240;51.128;4.566;2024-01-10T13:13:15;14.53;;;8.30;;
10387;SDS011;5240;51.128;4.566;2024-01-10T13:15:43;13.93;;;7.40;;
10387;SDS011;5240;51.128;4.566;2024-01-10T13:18:10;13.80;;;7.60;;
10387;SDS011;5240;51.128;4.566;2024-01-10T13:20:38;21.77;;;8.10;;
10387;SDS011;5240;51.128;4.566;2024-01-10T13:23:05;10.95;;;6.97;;
10387;SDS011;5240;51.128;4.566;2024-01-10T13:25:34;13.70;;;8.00;;
10387;SDS011;5240;51.128;4.566;2024-01-10T13:28:02;16.90;;;8.00;;
10387;SDS011;5240;51.128;4.566;2024-01-10T13:30:29;15.82;;;8.05;;
10387;SDS011;5240;51.128;4.566;2024-01-10T13:32:57;15.00;;;7.90;;
10387;SDS011;5240;51.128;4.566;2024-01-10T13:35:24;14.98;;;7.65;;
10387;SDS011;5240;51.128;4.566;2024-01-10T13:37:52;15.45;;;7.82;;
10387;SDS011;5240;51.128;4.566;2024-01-10T13:40:19;12.48;;;7.90;;
10387;SDS011;5240;51.128;4.566;2024-01-10T13:42:50;12.90;;;7.75;;
10387;SDS011;5240;51.128;4.566;2024-01-10T13:45:17;15.48;;;8.23;;
10387;SDS011;5240;51.128;4.566;2024-01-10T13:47:45;13.75;;;7.80;;
10387;SDS011;5240;51.128;4.566;2024-01-10T13:50:14;16.35;;;8.60;;
10387;SDS011;5240;51.128;4.566;2024-01-10T13:52:41;14.93;;;8.30;;
10387;SDS011;5240;51.128;4.566;2024-01-10T13:55:09;13.20;;;7.60;;
10387;SDS011;5240;51.128;4.566;2024-01-10T13:57:36;13.48;;;8.20;;
10387;SDS011;5240;51.128;4.566;2024-01-10T14:00:06;13.98;;;7.78;;
10387;SDS011;5240;51.128;4.566;2024-01-10T14:02:34;13.77;;;8.10;;
10387;SDS011;5240;51.128;4.566;2024-01-10T14:05:02;15.52;;;8.48;;
10387;SDS011;5240;51.128;4.566;2024-01-10T14:07:31;14.68;;;8.57;;
10387;SDS011;5240;51.128;4.566;2024-01-10T14:09:58;12.68;;;8.75;;
10387;SDS011;5240;51.128;4.566;2024-01-10T14:12:26;15.13;;;8.43;;
10387;SDS011;5240;51.128;4.566;2024-01-10T14:14:54;13.38;;;8.32;;
10387;SDS011;5240;51.128;4.566;2024-01-10T14:17:23;15.60;;;8.48;;
10387;SDS011;5240;51.128;4.566;2024-01-10T14:19:51;14.15;;;7.85;;
10387;SDS011;5240;51.128;4.566;2024-01-10T14:22:18;13.10;;;7.78;;
10387;SDS011;5240;51.128;4.566;2024-01-10T14:24:45;13.25;;;8.68;;
10387;SDS011;5240;51.128;4.566;2024-01-10T14:27:12;19.30;;;8.30;;
10387;SDS011;5240;51.128;4.566;2024-01-10T14:29:40;15.15;;;8.90;;
10387;SDS011;5240;51.128;4.566;2024-01-10T14:32:07;14.27;;;8.10;;
10387;SDS011;5240;51.128;4.566;2024-01-10T14:34:38;12.95;;;8.25;;
10387;SDS011;5240;51.128;4.566;2024-01-10T14:37:06;13.95;;;8.07;;
10387;SDS011;5240;51.128;4.566;2024-01-10T14:39:33;18.70;;;8.52;;
10387;SDS011;5240;51.128;4.566;2024-01-10T14:42:04;13.48;;;8.07;;
10387;SDS011;5240;51.128;4.566;2024-01-10T14:44:32;12.50;;;7.40;;
10387;SDS011;5240;51.128;4.566;2024-01-10T14:47:00;16.13;;;8.65;;
10387;SDS011;5240;51.128;4.566;2024-01-10T14:49:28;13.00;;;8.23;;
10387;SDS011;5240;51.128;4.566;2024-01-10T14:51:57;15.93;;;8.90;;
10387;SDS011;5240;51.128;4.566;2024-01-10T14:54:24;14.68;;;8.75;;
10387;SDS011;5240;51.128;4.566;2024-01-10T14:56:51;15.18;;;8.38;;
10387;SDS011;5240;51.128;4.566;2024-01-10T14:59:18;12.90;;;8.25;;
10387;SDS011;5240;51.128;4.566;2024-01-10T15:01:46;13.30;;;8.52;;
10387;SDS011;5240;51.128;4.566;2024-01-10T15:04:13;17.17;;;8.70;;